<?xml version="1.0" encoding="UTF-8" standalone="no" ?>
<gpx xmlns="http://www.topografix.com/GPX/1/1" xmlns:xsi="http://www.w3.org/2001/XMLSchema-instance" xsi:schemaLocation="http://www.topografix.com/GPX/1/1 http://www.topografix.com/GPX/1/1/gpx.xsd" version="1.1" creator="VisuGPX - https://www.visugpx.com">
  <metadata>
    <name>secteur Saverne - Dabo - Petite Pierre</name>
  </metadata>
  <trk>
    <name><![CDATA[secteur Saverne - Dabo - Petite Pierre_39]]></name>
    <trkseg>
      <trkpt lat="48.68885" lon="7.25559">
        <ele>478.3</ele>
        <time>2020-05-10T14:44:50Z</time>
      </trkpt>
      <trkpt lat="48.68885" lon="7.25559">
        <ele>478.3</ele>
        <time>2020-05-10T14:44:50Z</time>
      </trkpt>
      <trkpt lat="48.68885" lon="7.25559">
        <ele>478.3</ele>
        <time>2020-05-10T14:44:50Z</time>
      </trkpt>
      <trkpt lat="48.68885" lon="7.25559">
        <ele>478.3</ele>
        <time>2020-05-10T14:44:50Z</time>
      </trkpt>
      <trkpt lat="48.68885" lon="7.25559">
        <ele>478.3</ele>
        <time>2020-05-10T14:44:50Z</time>
      </trkpt>
      <trkpt lat="48.68874" lon="7.25552">
        <ele>478.1</ele>
        <time>2020-05-10T14:44:52Z</time>
      </trkpt>
      <trkpt lat="48.68867" lon="7.2555">
        <ele>477.9</ele>
        <time>2020-05-10T14:44:53Z</time>
      </trkpt>
      <trkpt lat="48.68854" lon="7.25543">
        <ele>477.6</ele>
        <time>2020-05-10T14:44:55Z</time>
      </trkpt>
      <trkpt lat="48.68848" lon="7.25539">
        <ele>477.5</ele>
        <time>2020-05-10T14:44:56Z</time>
      </trkpt>
      <trkpt lat="48.68835" lon="7.25529">
        <ele>477</ele>
        <time>2020-05-10T14:44:58Z</time>
      </trkpt>
      <trkpt lat="48.68823" lon="7.25517">
        <ele>476.5</ele>
        <time>2020-05-10T14:45:00Z</time>
      </trkpt>
      <trkpt lat="48.68816" lon="7.2551">
        <ele>476.1</ele>
        <time>2020-05-10T14:45:01Z</time>
      </trkpt>
      <trkpt lat="48.68805" lon="7.25497">
        <ele>475.5</ele>
        <time>2020-05-10T14:45:03Z</time>
      </trkpt>
      <trkpt lat="48.68799" lon="7.25491">
        <ele>475.2</ele>
        <time>2020-05-10T14:45:04Z</time>
      </trkpt>
      <trkpt lat="48.68789" lon="7.25478">
        <ele>474.6</ele>
        <time>2020-05-10T14:45:06Z</time>
      </trkpt>
      <trkpt lat="48.68783" lon="7.25472">
        <ele>474.2</ele>
        <time>2020-05-10T14:45:07Z</time>
      </trkpt>
      <trkpt lat="48.68772" lon="7.25469">
        <ele>473.6</ele>
        <time>2020-05-10T14:45:09Z</time>
      </trkpt>
      <trkpt lat="48.68768" lon="7.25467">
        <ele>473.3</ele>
        <time>2020-05-10T14:45:10Z</time>
      </trkpt>
      <trkpt lat="48.68764" lon="7.25464">
        <ele>473</ele>
        <time>2020-05-10T14:45:11Z</time>
      </trkpt>
      <trkpt lat="48.68752" lon="7.25453">
        <ele>472</ele>
        <time>2020-05-10T14:45:13Z</time>
      </trkpt>
      <trkpt lat="48.68741" lon="7.25436">
        <ele>470.9</ele>
        <time>2020-05-10T14:45:15Z</time>
      </trkpt>
      <trkpt lat="48.68738" lon="7.25429">
        <ele>470.5</ele>
        <time>2020-05-10T14:45:16Z</time>
      </trkpt>
      <trkpt lat="48.68732" lon="7.25416">
        <ele>469.6</ele>
        <time>2020-05-10T14:45:18Z</time>
      </trkpt>
      <trkpt lat="48.68731" lon="7.2541">
        <ele>469.2</ele>
        <time>2020-05-10T14:45:19Z</time>
      </trkpt>
      <trkpt lat="48.68726" lon="7.25395">
        <ele>468.3</ele>
        <time>2020-05-10T14:45:21Z</time>
      </trkpt>
      <trkpt lat="48.68721" lon="7.2538">
        <ele>467.5</ele>
        <time>2020-05-10T14:45:23Z</time>
      </trkpt>
      <trkpt lat="48.68718" lon="7.25372">
        <ele>467</ele>
        <time>2020-05-10T14:45:24Z</time>
      </trkpt>
      <trkpt lat="48.68711" lon="7.2536">
        <ele>466</ele>
        <time>2020-05-10T14:45:26Z</time>
      </trkpt>
      <trkpt lat="48.68705" lon="7.25352">
        <ele>465.2</ele>
        <time>2020-05-10T14:45:28Z</time>
      </trkpt>
      <trkpt lat="48.68702" lon="7.25347">
        <ele>464.7</ele>
        <time>2020-05-10T14:45:29Z</time>
      </trkpt>
      <trkpt lat="48.68698" lon="7.25343">
        <ele>464.1</ele>
        <time>2020-05-10T14:45:30Z</time>
      </trkpt>
      <trkpt lat="48.68688" lon="7.2533">
        <ele>462.8</ele>
        <time>2020-05-10T14:45:32Z</time>
      </trkpt>
      <trkpt lat="48.68684" lon="7.2532">
        <ele>462</ele>
        <time>2020-05-10T14:45:33Z</time>
      </trkpt>
      <trkpt lat="48.68678" lon="7.2531">
        <ele>461.3</ele>
        <time>2020-05-10T14:45:34Z</time>
      </trkpt>
      <trkpt lat="48.68662" lon="7.2529">
        <ele>459.6</ele>
        <time>2020-05-10T14:45:36Z</time>
      </trkpt>
      <trkpt lat="48.68656" lon="7.25281">
        <ele>459</ele>
        <time>2020-05-10T14:45:37Z</time>
      </trkpt>
      <trkpt lat="48.68649" lon="7.25274">
        <ele>458.6</ele>
        <time>2020-05-10T14:45:38Z</time>
      </trkpt>
      <trkpt lat="48.68633" lon="7.25262">
        <ele>458</ele>
        <time>2020-05-10T14:45:40Z</time>
      </trkpt>
      <trkpt lat="48.68625" lon="7.25258">
        <ele>457.8</ele>
        <time>2020-05-10T14:45:41Z</time>
      </trkpt>
      <trkpt lat="48.68617" lon="7.25255">
        <ele>457.5</ele>
        <time>2020-05-10T14:45:42Z</time>
      </trkpt>
      <trkpt lat="48.68608" lon="7.25253">
        <ele>457.3</ele>
        <time>2020-05-10T14:45:43Z</time>
      </trkpt>
      <trkpt lat="48.68599" lon="7.25253">
        <ele>457</ele>
        <time>2020-05-10T14:45:44Z</time>
      </trkpt>
      <trkpt lat="48.68585" lon="7.25249">
        <ele>456.8</ele>
        <time>2020-05-10T14:45:46Z</time>
      </trkpt>
      <trkpt lat="48.68569" lon="7.25251">
        <ele>456.7</ele>
        <time>2020-05-10T14:45:48Z</time>
      </trkpt>
      <trkpt lat="48.68562" lon="7.25251">
        <ele>456.7</ele>
        <time>2020-05-10T14:45:49Z</time>
      </trkpt>
      <trkpt lat="48.68549" lon="7.25249">
        <ele>457</ele>
        <time>2020-05-10T14:45:51Z</time>
      </trkpt>
      <trkpt lat="48.68544" lon="7.25252">
        <ele>457.1</ele>
        <time>2020-05-10T14:45:52Z</time>
      </trkpt>
      <trkpt lat="48.68536" lon="7.25259">
        <ele>457.6</ele>
        <time>2020-05-10T14:45:54Z</time>
      </trkpt>
      <trkpt lat="48.68531" lon="7.25261">
        <ele>457.8</ele>
        <time>2020-05-10T14:45:55Z</time>
      </trkpt>
      <trkpt lat="48.68522" lon="7.25264">
        <ele>458.2</ele>
        <time>2020-05-10T14:45:57Z</time>
      </trkpt>
      <trkpt lat="48.68512" lon="7.25266">
        <ele>458.8</ele>
        <time>2020-05-10T14:45:59Z</time>
      </trkpt>
      <trkpt lat="48.68506" lon="7.25271">
        <ele>459.1</ele>
        <time>2020-05-10T14:46:01Z</time>
      </trkpt>
      <trkpt lat="48.68498" lon="7.25277">
        <ele>459.4</ele>
        <time>2020-05-10T14:46:03Z</time>
      </trkpt>
      <trkpt lat="48.68493" lon="7.25278">
        <ele>459.6</ele>
        <time>2020-05-10T14:46:04Z</time>
      </trkpt>
      <trkpt lat="48.68485" lon="7.2528">
        <ele>459.9</ele>
        <time>2020-05-10T14:46:06Z</time>
      </trkpt>
      <trkpt lat="48.68481" lon="7.2528">
        <ele>460</ele>
        <time>2020-05-10T14:46:07Z</time>
      </trkpt>
      <trkpt lat="48.68476" lon="7.25283">
        <ele>460.2</ele>
        <time>2020-05-10T14:46:08Z</time>
      </trkpt>
      <trkpt lat="48.68472" lon="7.25284">
        <ele>460.4</ele>
        <time>2020-05-10T14:46:09Z</time>
      </trkpt>
      <trkpt lat="48.68466" lon="7.25287">
        <ele>460.7</ele>
        <time>2020-05-10T14:46:11Z</time>
      </trkpt>
      <trkpt lat="48.68458" lon="7.2529">
        <ele>460.9</ele>
        <time>2020-05-10T14:46:13Z</time>
      </trkpt>
      <trkpt lat="48.68449" lon="7.25292">
        <ele>461.2</ele>
        <time>2020-05-10T14:46:15Z</time>
      </trkpt>
      <trkpt lat="48.68439" lon="7.25294">
        <ele>461.4</ele>
        <time>2020-05-10T14:46:17Z</time>
      </trkpt>
      <trkpt lat="48.68434" lon="7.25294">
        <ele>461.6</ele>
        <time>2020-05-10T14:46:18Z</time>
      </trkpt>
      <trkpt lat="48.68425" lon="7.25294">
        <ele>461.8</ele>
        <time>2020-05-10T14:46:20Z</time>
      </trkpt>
      <trkpt lat="48.68414" lon="7.25298">
        <ele>462.1</ele>
        <time>2020-05-10T14:46:22Z</time>
      </trkpt>
      <trkpt lat="48.68403" lon="7.25304">
        <ele>462.4</ele>
        <time>2020-05-10T14:46:24Z</time>
      </trkpt>
      <trkpt lat="48.68393" lon="7.25309">
        <ele>462.8</ele>
        <time>2020-05-10T14:46:26Z</time>
      </trkpt>
      <trkpt lat="48.68387" lon="7.25312">
        <ele>463.1</ele>
        <time>2020-05-10T14:46:27Z</time>
      </trkpt>
      <trkpt lat="48.68381" lon="7.25313">
        <ele>463.4</ele>
        <time>2020-05-10T14:46:28Z</time>
      </trkpt>
      <trkpt lat="48.68375" lon="7.25314">
        <ele>463.6</ele>
        <time>2020-05-10T14:46:29Z</time>
      </trkpt>
      <trkpt lat="48.68367" lon="7.25316">
        <ele>463.9</ele>
        <time>2020-05-10T14:46:30Z</time>
      </trkpt>
      <trkpt lat="48.68359" lon="7.25321">
        <ele>464.2</ele>
        <time>2020-05-10T14:46:32Z</time>
      </trkpt>
      <trkpt lat="48.68353" lon="7.25325">
        <ele>464.4</ele>
        <time>2020-05-10T14:46:33Z</time>
      </trkpt>
      <trkpt lat="48.6834" lon="7.25334">
        <ele>464.9</ele>
        <time>2020-05-10T14:46:35Z</time>
      </trkpt>
      <trkpt lat="48.68327" lon="7.25344">
        <ele>465.4</ele>
        <time>2020-05-10T14:46:37Z</time>
      </trkpt>
      <trkpt lat="48.68322" lon="7.25346">
        <ele>465.5</ele>
        <time>2020-05-10T14:46:38Z</time>
      </trkpt>
      <trkpt lat="48.68314" lon="7.25354">
        <ele>465.8</ele>
        <time>2020-05-10T14:46:40Z</time>
      </trkpt>
      <trkpt lat="48.68308" lon="7.25359">
        <ele>465.9</ele>
        <time>2020-05-10T14:46:41Z</time>
      </trkpt>
      <trkpt lat="48.68302" lon="7.25364">
        <ele>466.1</ele>
        <time>2020-05-10T14:46:42Z</time>
      </trkpt>
      <trkpt lat="48.68297" lon="7.25369">
        <ele>466.2</ele>
        <time>2020-05-10T14:46:43Z</time>
      </trkpt>
      <trkpt lat="48.68293" lon="7.25373">
        <ele>466.3</ele>
        <time>2020-05-10T14:46:44Z</time>
      </trkpt>
      <trkpt lat="48.68283" lon="7.25381">
        <ele>466.6</ele>
        <time>2020-05-10T14:46:46Z</time>
      </trkpt>
      <trkpt lat="48.68278" lon="7.25385">
        <ele>466.7</ele>
        <time>2020-05-10T14:46:47Z</time>
      </trkpt>
      <trkpt lat="48.68274" lon="7.25388">
        <ele>466.8</ele>
        <time>2020-05-10T14:46:48Z</time>
      </trkpt>
      <trkpt lat="48.6827" lon="7.25392">
        <ele>466.9</ele>
        <time>2020-05-10T14:46:49Z</time>
      </trkpt>
      <trkpt lat="48.68261" lon="7.254">
        <ele>467.3</ele>
        <time>2020-05-10T14:46:51Z</time>
      </trkpt>
      <trkpt lat="48.68257" lon="7.25405">
        <ele>467.4</ele>
        <time>2020-05-10T14:46:52Z</time>
      </trkpt>
      <trkpt lat="48.68251" lon="7.25411">
        <ele>467.7</ele>
        <time>2020-05-10T14:46:54Z</time>
      </trkpt>
      <trkpt lat="48.68243" lon="7.25419">
        <ele>468</ele>
        <time>2020-05-10T14:46:56Z</time>
      </trkpt>
      <trkpt lat="48.68237" lon="7.25426">
        <ele>468.3</ele>
        <time>2020-05-10T14:46:58Z</time>
      </trkpt>
      <trkpt lat="48.68232" lon="7.25433">
        <ele>468.5</ele>
        <time>2020-05-10T14:47:00Z</time>
      </trkpt>
      <trkpt lat="48.68226" lon="7.2544">
        <ele>468.9</ele>
        <time>2020-05-10T14:47:02Z</time>
      </trkpt>
      <trkpt lat="48.68218" lon="7.25448">
        <ele>469.2</ele>
        <time>2020-05-10T14:47:04Z</time>
      </trkpt>
      <trkpt lat="48.68215" lon="7.25452">
        <ele>469.4</ele>
        <time>2020-05-10T14:47:05Z</time>
      </trkpt>
      <trkpt lat="48.6821" lon="7.25456">
        <ele>469.6</ele>
        <time>2020-05-10T14:47:06Z</time>
      </trkpt>
      <trkpt lat="48.68204" lon="7.25463">
        <ele>470</ele>
        <time>2020-05-10T14:47:08Z</time>
      </trkpt>
      <trkpt lat="48.68201" lon="7.25467">
        <ele>470.2</ele>
        <time>2020-05-10T14:47:09Z</time>
      </trkpt>
      <trkpt lat="48.68197" lon="7.25471">
        <ele>470.4</ele>
        <time>2020-05-10T14:47:10Z</time>
      </trkpt>
      <trkpt lat="48.6819" lon="7.25477">
        <ele>470.6</ele>
        <time>2020-05-10T14:47:12Z</time>
      </trkpt>
      <trkpt lat="48.68187" lon="7.2548">
        <ele>470.7</ele>
        <time>2020-05-10T14:47:13Z</time>
      </trkpt>
      <trkpt lat="48.68183" lon="7.25484">
        <ele>470.9</ele>
        <time>2020-05-10T14:47:14Z</time>
      </trkpt>
      <trkpt lat="48.68177" lon="7.25488">
        <ele>471.1</ele>
        <time>2020-05-10T14:47:16Z</time>
      </trkpt>
      <trkpt lat="48.68174" lon="7.25491">
        <ele>471.2</ele>
        <time>2020-05-10T14:47:17Z</time>
      </trkpt>
      <trkpt lat="48.68166" lon="7.25498">
        <ele>471.4</ele>
        <time>2020-05-10T14:47:19Z</time>
      </trkpt>
      <trkpt lat="48.68163" lon="7.25501">
        <ele>471.5</ele>
        <time>2020-05-10T14:47:20Z</time>
      </trkpt>
      <trkpt lat="48.68155" lon="7.25507">
        <ele>471.6</ele>
        <time>2020-05-10T14:47:22Z</time>
      </trkpt>
      <trkpt lat="48.68151" lon="7.2551">
        <ele>471.7</ele>
        <time>2020-05-10T14:47:23Z</time>
      </trkpt>
      <trkpt lat="48.68148" lon="7.25512">
        <ele>471.8</ele>
        <time>2020-05-10T14:47:24Z</time>
      </trkpt>
      <trkpt lat="48.68142" lon="7.25521">
        <ele>471.8</ele>
        <time>2020-05-10T14:47:26Z</time>
      </trkpt>
      <trkpt lat="48.68139" lon="7.25526">
        <ele>471.8</ele>
        <time>2020-05-10T14:47:27Z</time>
      </trkpt>
      <trkpt lat="48.68134" lon="7.25531">
        <ele>471.8</ele>
        <time>2020-05-10T14:47:28Z</time>
      </trkpt>
      <trkpt lat="48.6813" lon="7.25537">
        <ele>471.8</ele>
        <time>2020-05-10T14:47:29Z</time>
      </trkpt>
      <trkpt lat="48.6812" lon="7.25549">
        <ele>471.5</ele>
        <time>2020-05-10T14:47:31Z</time>
      </trkpt>
      <trkpt lat="48.68112" lon="7.25557">
        <ele>471.1</ele>
        <time>2020-05-10T14:47:33Z</time>
      </trkpt>
      <trkpt lat="48.681" lon="7.25564">
        <ele>470.7</ele>
        <time>2020-05-10T14:47:35Z</time>
      </trkpt>
      <trkpt lat="48.68089" lon="7.25578">
        <ele>470.3</ele>
        <time>2020-05-10T14:47:37Z</time>
      </trkpt>
      <trkpt lat="48.68084" lon="7.25583">
        <ele>470.1</ele>
        <time>2020-05-10T14:47:38Z</time>
      </trkpt>
      <trkpt lat="48.68076" lon="7.25598">
        <ele>469.7</ele>
        <time>2020-05-10T14:47:40Z</time>
      </trkpt>
      <trkpt lat="48.68067" lon="7.25614">
        <ele>469.4</ele>
        <time>2020-05-10T14:47:42Z</time>
      </trkpt>
      <trkpt lat="48.68056" lon="7.25632">
        <ele>469</ele>
        <time>2020-05-10T14:47:44Z</time>
      </trkpt>
      <trkpt lat="48.6805" lon="7.2564">
        <ele>468.8</ele>
        <time>2020-05-10T14:47:45Z</time>
      </trkpt>
      <trkpt lat="48.68041" lon="7.25657">
        <ele>468.5</ele>
        <time>2020-05-10T14:47:47Z</time>
      </trkpt>
      <trkpt lat="48.68036" lon="7.25665">
        <ele>468.2</ele>
        <time>2020-05-10T14:47:48Z</time>
      </trkpt>
      <trkpt lat="48.68029" lon="7.25673">
        <ele>468</ele>
        <time>2020-05-10T14:47:50Z</time>
      </trkpt>
      <trkpt lat="48.68022" lon="7.25682">
        <ele>467.8</ele>
        <time>2020-05-10T14:47:51Z</time>
      </trkpt>
      <trkpt lat="48.68018" lon="7.25686">
        <ele>467.7</ele>
        <time>2020-05-10T14:47:52Z</time>
      </trkpt>
      <trkpt lat="48.68014" lon="7.2569">
        <ele>467.6</ele>
        <time>2020-05-10T14:47:53Z</time>
      </trkpt>
      <trkpt lat="48.68004" lon="7.25701">
        <ele>467.5</ele>
        <time>2020-05-10T14:47:55Z</time>
      </trkpt>
      <trkpt lat="48.67998" lon="7.25708">
        <ele>467.5</ele>
        <time>2020-05-10T14:47:56Z</time>
      </trkpt>
      <trkpt lat="48.67986" lon="7.2572">
        <ele>467.5</ele>
        <time>2020-05-10T14:47:58Z</time>
      </trkpt>
      <trkpt lat="48.67977" lon="7.25722">
        <ele>467.6</ele>
        <time>2020-05-10T14:48:00Z</time>
      </trkpt>
      <trkpt lat="48.6797" lon="7.25722">
        <ele>467.6</ele>
        <time>2020-05-10T14:48:01Z</time>
      </trkpt>
      <trkpt lat="48.67959" lon="7.25726">
        <ele>467.7</ele>
        <time>2020-05-10T14:48:03Z</time>
      </trkpt>
      <trkpt lat="48.67946" lon="7.25732">
        <ele>467.6</ele>
        <time>2020-05-10T14:48:05Z</time>
      </trkpt>
      <trkpt lat="48.67939" lon="7.25732">
        <ele>467.5</ele>
        <time>2020-05-10T14:48:06Z</time>
      </trkpt>
      <trkpt lat="48.6793" lon="7.25731">
        <ele>467.2</ele>
        <time>2020-05-10T14:48:08Z</time>
      </trkpt>
      <trkpt lat="48.6792" lon="7.25729">
        <ele>467</ele>
        <time>2020-05-10T14:48:10Z</time>
      </trkpt>
      <trkpt lat="48.67914" lon="7.25726">
        <ele>466.8</ele>
        <time>2020-05-10T14:48:11Z</time>
      </trkpt>
      <trkpt lat="48.67903" lon="7.25727">
        <ele>466.6</ele>
        <time>2020-05-10T14:48:13Z</time>
      </trkpt>
      <trkpt lat="48.67892" lon="7.25727">
        <ele>466.4</ele>
        <time>2020-05-10T14:48:15Z</time>
      </trkpt>
      <trkpt lat="48.67886" lon="7.25727">
        <ele>466.3</ele>
        <time>2020-05-10T14:48:16Z</time>
      </trkpt>
      <trkpt lat="48.67875" lon="7.25735">
        <ele>466.1</ele>
        <time>2020-05-10T14:48:18Z</time>
      </trkpt>
      <trkpt lat="48.67865" lon="7.25738">
        <ele>466</ele>
        <time>2020-05-10T14:48:20Z</time>
      </trkpt>
      <trkpt lat="48.67858" lon="7.2574">
        <ele>466</ele>
        <time>2020-05-10T14:48:21Z</time>
      </trkpt>
      <trkpt lat="48.67846" lon="7.25743">
        <ele>466</ele>
        <time>2020-05-10T14:48:23Z</time>
      </trkpt>
      <trkpt lat="48.67841" lon="7.25742">
        <ele>466.1</ele>
        <time>2020-05-10T14:48:24Z</time>
      </trkpt>
      <trkpt lat="48.67836" lon="7.25743">
        <ele>466.1</ele>
        <time>2020-05-10T14:48:25Z</time>
      </trkpt>
      <trkpt lat="48.67831" lon="7.25747">
        <ele>466.3</ele>
        <time>2020-05-10T14:48:26Z</time>
      </trkpt>
      <trkpt lat="48.67818" lon="7.25751">
        <ele>466.5</ele>
        <time>2020-05-10T14:48:28Z</time>
      </trkpt>
      <trkpt lat="48.67809" lon="7.25753">
        <ele>466.6</ele>
        <time>2020-05-10T14:48:30Z</time>
      </trkpt>
      <trkpt lat="48.678" lon="7.25758">
        <ele>466.8</ele>
        <time>2020-05-10T14:48:32Z</time>
      </trkpt>
      <trkpt lat="48.6779" lon="7.2576">
        <ele>467</ele>
        <time>2020-05-10T14:48:34Z</time>
      </trkpt>
      <trkpt lat="48.67785" lon="7.25763">
        <ele>467.1</ele>
        <time>2020-05-10T14:48:35Z</time>
      </trkpt>
      <trkpt lat="48.67774" lon="7.25771">
        <ele>467.5</ele>
        <time>2020-05-10T14:48:37Z</time>
      </trkpt>
      <trkpt lat="48.67769" lon="7.25776">
        <ele>467.7</ele>
        <time>2020-05-10T14:48:38Z</time>
      </trkpt>
      <trkpt lat="48.67765" lon="7.25778">
        <ele>467.9</ele>
        <time>2020-05-10T14:48:39Z</time>
      </trkpt>
      <trkpt lat="48.67754" lon="7.25785">
        <ele>468.2</ele>
        <time>2020-05-10T14:48:41Z</time>
      </trkpt>
      <trkpt lat="48.67749" lon="7.25787">
        <ele>468.4</ele>
        <time>2020-05-10T14:48:42Z</time>
      </trkpt>
      <trkpt lat="48.67742" lon="7.25796">
        <ele>468.6</ele>
        <time>2020-05-10T14:48:44Z</time>
      </trkpt>
      <trkpt lat="48.6774" lon="7.258">
        <ele>468.6</ele>
        <time>2020-05-10T14:48:45Z</time>
      </trkpt>
      <trkpt lat="48.67731" lon="7.25806">
        <ele>468.8</ele>
        <time>2020-05-10T14:48:47Z</time>
      </trkpt>
      <trkpt lat="48.67721" lon="7.25813">
        <ele>469.1</ele>
        <time>2020-05-10T14:48:49Z</time>
      </trkpt>
      <trkpt lat="48.67714" lon="7.25818">
        <ele>469.2</ele>
        <time>2020-05-10T14:48:51Z</time>
      </trkpt>
      <trkpt lat="48.67706" lon="7.25823">
        <ele>469.3</ele>
        <time>2020-05-10T14:48:52Z</time>
      </trkpt>
      <trkpt lat="48.67698" lon="7.2583">
        <ele>469.3</ele>
        <time>2020-05-10T14:48:54Z</time>
      </trkpt>
      <trkpt lat="48.67695" lon="7.25832">
        <ele>469.3</ele>
        <time>2020-05-10T14:48:55Z</time>
      </trkpt>
      <trkpt lat="48.67691" lon="7.25836">
        <ele>469.2</ele>
        <time>2020-05-10T14:48:56Z</time>
      </trkpt>
      <trkpt lat="48.67686" lon="7.2584">
        <ele>469.2</ele>
        <time>2020-05-10T14:48:57Z</time>
      </trkpt>
      <trkpt lat="48.67682" lon="7.25845">
        <ele>469.1</ele>
        <time>2020-05-10T14:48:58Z</time>
      </trkpt>
      <trkpt lat="48.67673" lon="7.25851">
        <ele>468.8</ele>
        <time>2020-05-10T14:49:00Z</time>
      </trkpt>
      <trkpt lat="48.6767" lon="7.25854">
        <ele>468.7</ele>
        <time>2020-05-10T14:49:01Z</time>
      </trkpt>
      <trkpt lat="48.67661" lon="7.25862">
        <ele>468.3</ele>
        <time>2020-05-10T14:49:03Z</time>
      </trkpt>
      <trkpt lat="48.67656" lon="7.25865">
        <ele>468.1</ele>
        <time>2020-05-10T14:49:04Z</time>
      </trkpt>
      <trkpt lat="48.67645" lon="7.25873">
        <ele>467.6</ele>
        <time>2020-05-10T14:49:06Z</time>
      </trkpt>
      <trkpt lat="48.67633" lon="7.25876">
        <ele>467</ele>
        <time>2020-05-10T14:49:08Z</time>
      </trkpt>
      <trkpt lat="48.67619" lon="7.25876">
        <ele>466.2</ele>
        <time>2020-05-10T14:49:10Z</time>
      </trkpt>
      <trkpt lat="48.67613" lon="7.25876">
        <ele>465.8</ele>
        <time>2020-05-10T14:49:11Z</time>
      </trkpt>
      <trkpt lat="48.67604" lon="7.25875">
        <ele>465.3</ele>
        <time>2020-05-10T14:49:12Z</time>
      </trkpt>
      <trkpt lat="48.67593" lon="7.25878">
        <ele>464.9</ele>
        <time>2020-05-10T14:49:14Z</time>
      </trkpt>
      <trkpt lat="48.67588" lon="7.25879">
        <ele>464.7</ele>
        <time>2020-05-10T14:49:15Z</time>
      </trkpt>
      <trkpt lat="48.67579" lon="7.2588">
        <ele>464.4</ele>
        <time>2020-05-10T14:49:17Z</time>
      </trkpt>
      <trkpt lat="48.67569" lon="7.25879">
        <ele>464</ele>
        <time>2020-05-10T14:49:19Z</time>
      </trkpt>
      <trkpt lat="48.67565" lon="7.25877">
        <ele>463.9</ele>
        <time>2020-05-10T14:49:20Z</time>
      </trkpt>
      <trkpt lat="48.67561" lon="7.25877">
        <ele>463.7</ele>
        <time>2020-05-10T14:49:21Z</time>
      </trkpt>
      <trkpt lat="48.67551" lon="7.25876">
        <ele>464.3</ele>
        <time>2020-05-10T14:49:23Z</time>
      </trkpt>
      <trkpt lat="48.67546" lon="7.25874">
        <ele>464.4</ele>
        <time>2020-05-10T14:49:24Z</time>
      </trkpt>
      <trkpt lat="48.67541" lon="7.25875">
        <ele>464.6</ele>
        <time>2020-05-10T14:49:25Z</time>
      </trkpt>
      <trkpt lat="48.67534" lon="7.25877">
        <ele>464.8</ele>
        <time>2020-05-10T14:49:27Z</time>
      </trkpt>
      <trkpt lat="48.67526" lon="7.25878">
        <ele>465.1</ele>
        <time>2020-05-10T14:49:29Z</time>
      </trkpt>
      <trkpt lat="48.67528" lon="7.25882">
        <ele>465.2</ele>
        <time>2020-05-10T14:49:31Z</time>
      </trkpt>
      <trkpt lat="48.67531" lon="7.25888">
        <ele>465.4</ele>
        <time>2020-05-10T14:49:32Z</time>
      </trkpt>
      <trkpt lat="48.67537" lon="7.25897">
        <ele>465</ele>
        <time>2020-05-10T14:49:34Z</time>
      </trkpt>
      <trkpt lat="48.6754" lon="7.25902">
        <ele>464.8</ele>
        <time>2020-05-10T14:49:35Z</time>
      </trkpt>
      <trkpt lat="48.67548" lon="7.25908">
        <ele>464.4</ele>
        <time>2020-05-10T14:49:37Z</time>
      </trkpt>
      <trkpt lat="48.67552" lon="7.25918">
        <ele>464.1</ele>
        <time>2020-05-10T14:49:39Z</time>
      </trkpt>
      <trkpt lat="48.67555" lon="7.25926">
        <ele>463.8</ele>
        <time>2020-05-10T14:49:41Z</time>
      </trkpt>
      <trkpt lat="48.67557" lon="7.25932">
        <ele>463.7</ele>
        <time>2020-05-10T14:49:42Z</time>
      </trkpt>
      <trkpt lat="48.67558" lon="7.25937">
        <ele>463.5</ele>
        <time>2020-05-10T14:49:43Z</time>
      </trkpt>
      <trkpt lat="48.67558" lon="7.25942">
        <ele>463.4</ele>
        <time>2020-05-10T14:49:44Z</time>
      </trkpt>
      <trkpt lat="48.67559" lon="7.25947">
        <ele>463.3</ele>
        <time>2020-05-10T14:49:45Z</time>
      </trkpt>
      <trkpt lat="48.67562" lon="7.25958">
        <ele>462.9</ele>
        <time>2020-05-10T14:49:47Z</time>
      </trkpt>
      <trkpt lat="48.67563" lon="7.25963">
        <ele>462.8</ele>
        <time>2020-05-10T14:49:48Z</time>
      </trkpt>
      <trkpt lat="48.67563" lon="7.25969">
        <ele>462.3</ele>
        <time>2020-05-10T14:49:49Z</time>
      </trkpt>
      <trkpt lat="48.67565" lon="7.25981">
        <ele>462.3</ele>
        <time>2020-05-10T14:49:51Z</time>
      </trkpt>
      <trkpt lat="48.67566" lon="7.25987">
        <ele>462.2</ele>
        <time>2020-05-10T14:49:52Z</time>
      </trkpt>
      <trkpt lat="48.67567" lon="7.25999">
        <ele>462.2</ele>
        <time>2020-05-10T14:49:54Z</time>
      </trkpt>
      <trkpt lat="48.67568" lon="7.2601">
        <ele>462.2</ele>
        <time>2020-05-10T14:49:56Z</time>
      </trkpt>
      <trkpt lat="48.67569" lon="7.26016">
        <ele>462.1</ele>
        <time>2020-05-10T14:49:57Z</time>
      </trkpt>
      <trkpt lat="48.67569" lon="7.26028">
        <ele>462.1</ele>
        <time>2020-05-10T14:49:59Z</time>
      </trkpt>
      <trkpt lat="48.67569" lon="7.26035">
        <ele>462.1</ele>
        <time>2020-05-10T14:50:01Z</time>
      </trkpt>
    </trkseg>
  </trk>
</gpx>